Terminal Aerodrome Forecast
Issued by NWS Cleveland, OH

Home | Current Version | Previous Version | Text Only | Print | Product List | Glossary Off
Versions: 1 2 3 4 5 6 7 8 9 10 11 12 13 14 15 16 17 18 19 20 21 22 23 24 25

047
FTUS41 KCLE 280454 AAB
TAFCAK
TAF AMD
KCAK 280454Z 2805/2824 06006KT P6SM VCSH OVC100
      TEMPO 2805/2808 4SM -TSRA OVC025CB
     FM280800 06006KT 4SM -RA BR SCT006 OVC012
      TEMPO 2811/2815 2SM -RA BR OVC006
     FM281700 36010KT P6SM BKN008 OVC015=

USA.gov is the U.S. government's official web portal to all federal, state and local government web resources and services.